| Date | Time | Temp. (oF) | Dew Point (oF) | Rel. Hum. (%) | Press. (in.) | Wind Dir. (deg.) | Wind Speed (mph) | Hourly Rainfall (in.) |
|
|---|---|---|---|---|---|---|---|---|---|
| 1 | 12/12 | 24:00 | 32 | 25 | 78 | 30.50 | 330 | 0 | 0.00 |
| 2 | 12/11 | 23:00 | 32 | 24 | 74 | 30.50 | 330 | 0 | 0.00 |
| 3 | 12/11 | 22:00 | 33 | 24 | 72 | 30.50 | 330 | 0 | 0.00 |
| 4 | 12/11 | 21:00 | 34 | 24 | 68 | 30.50 | 330 | 0 | 0.00 |
| 5 | 12/11 | 20:00 | 36 | 24 | 64 | 30.51 | 330 | 0 | 0.00 |
| 6 | 12/11 | 19:00 | 38 | 23 | 56 | 30.49 | 330 | 0 | 0.00 |
| 7 | 12/11 | 18:00 | 40 | 23 | 52 | 30.46 | 330 | 0 | 0.00 |
| 8 | 12/11 | 17:00 | 43 | 24 | 47 | 30.45 | 330 | 1 | 0.00 |
| 9 | 12/11 | 16:00 | 45 | 23 | 42 | 30.41 | 310 | 4 | 0.00 |
| 10 | 12/11 | 15:00 | 46 | 24 | 42 | 30.40 | 280 | 9 | 0.00 |
| 11 | 12/11 | 14:00 | 46 | 24 | 42 | 30.40 | 330 | 7 | 0.00 |
| 12 | 12/11 | 13:00 | 46 | 24 | 42 | 30.40 | 300 | 10 | 0.00 |
| 13 | 12/11 | 12:00 | 45 | 24 | 45 | 30.43 | 290 | 10 | 0.00 |
| 14 | 12/11 | 11:00 | 44 | 24 | 47 | 30.43 | 330 | 10 | 0.00 |
| 15 | 12/11 | 10:00 | 43 | 25 | 49 | 30.41 | 320 | 10 | 0.00 |
| 16 | 12/11 | 09:00 | 41 | 26 | 55 | 30.42 | 250 | 10 | 0.00 |
| 17 | 12/11 | 08:00 | 40 | 25 | 57 | 30.39 | 300 | 7 | 0.00 |
| 18 | 12/11 | 07:00 | 40 | 26 | 59 | 30.37 | 280 | 4 | 0.00 |
| 19 | 12/11 | 06:00 | 40 | 28 | 63 | 30.37 | 330 | 1 | 0.00 |
| 20 | 12/11 | 05:00 | 39 | 27 | 62 | 30.36 | 270 | 0 | 0.00 |
| 21 | 12/11 | 04:00 | 41 | 26 | 57 | 30.33 | 270 | 0 | 0.00 |
| 22 | 12/11 | 03:00 | 42 | 26 | 53 | 30.34 | 290 | 2 | 0.00 |
| 23 | 12/11 | 02:00 | 43 | 29 | 58 | 30.33 | 310 | 2 | 0.00 |
| 24 | 12/11 | 01:00 | 43 | 30 | 62 | 30.33 | 310 | 1 | 0.00 |